createdAt,value
2023-02-11T00:04:29.710Z,42.20
2023-02-11T00:09:31.974Z,33.78
2023-02-11T00:14:35.783Z,35.97
2023-02-11T00:19:37.961Z,39.45
2023-02-11T00:24:40.146Z,45.45
2023-02-11T00:29:43.921Z,40.93
2023-02-11T00:34:46.442Z,41.85
2023-02-11T00:39:49.598Z,39.78
2023-02-11T00:44:53.111Z,39.83
2023-02-11T00:49:55.368Z,36.55
2023-02-11T00:54:57.687Z,39.73
2023-02-11T01:00:01.354Z,39.50
2023-02-11T01:05:03.638Z,40.42
2023-02-11T01:10:09.730Z,36.90
2023-02-11T01:15:16.936Z,37.92
2023-02-11T01:20:23.533Z,39.23
2023-02-11T01:25:25.818Z,45.75
2023-02-11T01:30:29.427Z,38.65
2023-02-11T01:35:31.645Z,36.47
2023-02-11T01:40:34.172Z,38.97
2023-02-11T01:46:05.855Z,42.57
2023-02-11T01:51:14.362Z,36.75
2023-02-11T01:56:19.519Z,40.30
2023-02-11T02:01:27.514Z,38.38
2023-02-11T02:06:37.319Z,43.28
2023-02-11T02:11:39.486Z,32.17
2023-02-11T02:16:44.228Z,40.83
2023-02-11T02:22:23.379Z,35.72
2023-02-11T02:27:40.065Z,34.72
2023-02-11T02:33:16.712Z,37.03
2023-02-11T02:38:31.552Z,33.47
2023-02-11T02:43:35.693Z,37.05
2023-02-11T02:48:39.423Z,36.63
2023-02-11T02:53:57.418Z,38.10
2023-02-11T02:59:25.230Z,41.85
2023-02-11T03:04:39.904Z,36.03
2023-02-11T03:09:51.638Z,31.50
2023-02-11T03:14:53.841Z,32.38
2023-02-11T03:19:59.767Z,32.42
2023-02-11T03:25:02.975Z,32.60
2023-02-11T03:30:13.206Z,37.57
2023-02-11T03:35:22.767Z,36.33
2023-02-11T03:40:29.496Z,34.85
2023-02-11T03:45:32.324Z,34.35
2023-02-11T03:50:38.909Z,34.47
2023-02-11T03:55:43.743Z,33.27
2023-02-11T04:00:46.440Z,37.80
2023-02-11T04:05:50.359Z,35.10
2023-02-11T04:10:52.683Z,35.30
2023-02-11T04:15:55.071Z,38.40
2023-02-11T04:20:58.830Z,39.37
2023-02-11T04:26:01.122Z,42.60
2023-02-11T04:31:03.557Z,30.75
2023-02-11T04:36:08.242Z,40.03
2023-02-11T04:41:10.440Z,34.85
2023-02-11T04:46:12.704Z,31.60
2023-02-11T04:51:16.884Z,40.53
2023-02-11T04:56:19.050Z,40.72
2023-02-11T05:01:21.371Z,46.10
2023-02-11T05:06:25.056Z,41.35
2023-02-11T05:11:27.286Z,41.33
2023-02-11T05:16:29.565Z,41.47
2023-02-11T05:21:33.540Z,43.00
2023-02-11T05:26:35.678Z,42.58
2023-02-11T05:31:38.016Z,43.15
2023-02-11T05:36:41.793Z,45.60
2023-02-11T05:41:44.199Z,42.20
2023-02-11T05:46:46.522Z,42.88
2023-02-11T05:51:50.329Z,48.80
2023-02-11T05:56:52.764Z,52.80
2023-02-11T06:01:55.103Z,49.90
2023-02-11T06:06:58.830Z,44.38
2023-02-11T06:12:01.102Z,50.42
2023-02-11T06:17:03.717Z,46.75
2023-02-11T06:22:07.689Z,52.20
2023-02-11T06:27:10.210Z,54.10
2023-02-11T06:32:33.631Z,55.75
2023-02-11T06:37:36.774Z,51.95
2023-02-11T06:42:39.395Z,55.90
2023-02-11T06:47:42.054Z,52.13
2023-02-11T06:52:46.000Z,52.53
2023-02-11T06:57:48.580Z,47.08
2023-02-11T07:02:50.877Z,50.85
2023-02-11T07:07:54.851Z,57.13
2023-02-11T07:12:58.858Z,56.03
2023-02-11T07:18:01.369Z,47.73
2023-02-11T07:23:05.313Z,51.78
2023-02-11T07:28:07.779Z,51.60
2023-02-11T07:33:11.611Z,46.22
2023-02-11T07:38:15.623Z,50.05
2023-02-11T07:43:17.940Z,47.93
2023-02-11T07:48:20.212Z,53.05
2023-02-11T07:53:24.233Z,49.75
2023-02-11T07:58:26.471Z,45.33
2023-02-11T08:03:28.746Z,46.55
2023-02-11T08:08:32.764Z,51.57
2023-02-11T08:13:35.618Z,52.22
2023-02-11T08:18:38.006Z,48.00
2023-02-11T08:23:45.082Z,49.08
2023-02-11T08:28:50.517Z,47.78
2023-02-11T08:33:54.736Z,48.80
2023-02-11T08:39:17.542Z,47.55
2023-02-11T08:44:22.178Z,45.15
2023-02-11T08:49:24.632Z,50.72
2023-02-11T08:54:28.524Z,50.08
2023-02-11T08:59:34.185Z,44.23
2023-02-11T09:04:39.744Z,40.50
2023-02-11T09:09:43.652Z,54.22
2023-02-11T09:14:46.449Z,45.75
2023-02-11T09:19:48.821Z,41.67
2023-02-11T09:24:52.971Z,40.10
2023-02-11T09:29:55.276Z,45.72
2023-02-11T09:34:57.541Z,43.40
2023-02-11T09:40:01.365Z,50.00
2023-02-11T09:45:10.694Z,57.72
2023-02-11T09:50:22.362Z,52.17
2023-02-11T09:55:31.504Z,46.47
2023-02-11T10:00:43.179Z,44.42
2023-02-11T10:06:17.716Z,50.13
2023-02-11T10:11:32.803Z,48.00
2023-02-11T10:16:51.863Z,53.00
2023-02-11T10:22:10.143Z,48.30
2023-02-11T10:27:20.856Z,44.05
2023-02-11T10:32:33.987Z,56.00
2023-02-11T10:37:36.897Z,52.97
2023-02-11T10:42:46.005Z,55.00
2023-02-11T10:47:49.122Z,56.55
2023-02-11T10:52:51.981Z,51.88
2023-02-11T10:57:59.274Z,48.55
2023-02-11T11:03:02.858Z,54.22
2023-02-11T11:08:09.417Z,48.20
2023-02-11T11:13:33.112Z,49.88
2023-02-11T11:18:35.833Z,48.85
2023-02-11T11:23:40.036Z,52.17
2023-02-11T11:28:55.937Z,50.80
2023-02-11T11:34:03.565Z,44.70
2023-02-11T11:39:25.388Z,40.85
2023-02-11T11:44:32.450Z,42.42
2023-02-11T11:49:42.775Z,40.47
2023-02-11T11:54:56.339Z,36.97
2023-02-11T12:00:00.104Z,36.70
2023-02-11T12:05:13.778Z,31.45
2023-02-11T12:10:45.047Z,28.45
2023-02-11T12:16:04.383Z,30.33
2023-02-11T12:21:24.872Z,29.85
2023-02-11T12:26:39.176Z,26.73
2023-02-11T12:32:04.985Z,25.45
2023-02-11T12:37:31.408Z,23.70
2023-02-11T12:42:57.749Z,20.27
2023-02-11T12:48:30.671Z,23.27
2023-02-11T12:54:04.723Z,27.87
2023-02-11T12:59:31.496Z,41.75
2023-02-11T13:04:41.617Z,22.38
2023-02-11T13:09:58.716Z,26.40
2023-02-11T13:15:07.953Z,28.15
2023-02-11T13:20:28.112Z,13.00
2023-02-11T13:25:43.086Z,20.50
2023-02-11T13:30:46.863Z,24.60
2023-02-11T13:36:29.533Z,13.37
2023-02-11T13:41:40.235Z,13.25
2023-02-11T13:46:57.821Z,20.07
2023-02-11T13:52:06.192Z,17.95
2023-02-11T13:57:36.500Z,15.60
2023-02-11T14:02:39.049Z,15.77
2023-02-11T14:08:15.641Z,12.07
2023-02-11T14:13:25.735Z,22.63
2023-02-11T14:18:57.294Z,23.85
2023-02-11T14:25:05.484Z,41.28
2023-02-11T14:30:37.272Z,51.27
2023-02-11T14:35:58.250Z,43.03
2023-02-11T14:41:10.673Z,25.03
2023-02-11T14:46:15.472Z,19.88
2023-02-11T14:51:23.503Z,15.70
2023-02-11T14:56:29.669Z,22.27
2023-02-11T15:01:35.728Z,18.63
2023-02-11T15:06:40.899Z,36.30
2023-02-11T15:11:48.755Z,27.75
2023-02-11T15:16:54.430Z,28.52
2023-02-11T15:21:57.425Z,28.30
2023-02-11T15:27:10.493Z,21.13
2023-02-11T15:32:17.316Z,22.23
2023-02-11T15:37:23.034Z,17.20
2023-02-11T15:42:31.428Z,23.85
2023-02-11T15:47:39.215Z,24.50
2023-02-11T15:52:41.500Z,27.40
2023-02-11T15:57:51.106Z,22.67
2023-02-11T16:02:54.266Z,22.50
2023-02-11T16:07:57.839Z,22.55
2023-02-11T16:13:19.644Z,29.20
2023-02-11T16:18:38.378Z,22.90
2023-02-11T16:23:42.051Z,29.90
2023-02-11T16:28:45.658Z,26.88
2023-02-11T16:33:48.135Z,22.05
2023-02-11T16:38:50.305Z,21.17
2023-02-11T16:43:57.384Z,20.45
2023-02-11T16:49:10.363Z,21.50
2023-02-11T16:54:16.328Z,19.10
2023-02-11T16:59:21.001Z,19.25
2023-02-11T17:04:29.954Z,29.37
2023-02-11T17:09:32.386Z,20.02
2023-02-11T17:14:36.049Z,36.77
2023-02-11T17:19:39.338Z,22.17
2023-02-11T17:24:41.557Z,22.05
2023-02-11T17:29:45.093Z,24.17
2023-02-11T17:34:47.748Z,39.45
2023-02-11T17:39:50.328Z,28.13
2023-02-11T17:44:53.881Z,26.45
2023-02-11T17:49:56.448Z,28.48
2023-02-11T17:54:58.988Z,22.20
2023-02-11T18:00:04.577Z,27.90
2023-02-11T18:05:15.287Z,36.57
2023-02-11T18:10:18.197Z,35.25
2023-02-11T18:15:23.317Z,30.50
2023-02-11T18:20:25.664Z,29.57
2023-02-11T18:25:28.138Z,34.10
2023-02-11T18:30:34.959Z,29.03
2023-02-11T18:35:38.333Z,30.50
2023-02-11T18:40:41.247Z,27.55
2023-02-11T18:45:46.181Z,30.50
2023-02-11T18:50:48.637Z,24.17
2023-02-11T18:55:52.504Z,17.30
2023-02-11T19:00:56.229Z,22.83
2023-02-11T19:05:58.621Z,17.63
2023-02-11T19:11:00.837Z,12.40
2023-02-11T19:16:11.218Z,14.63
2023-02-11T19:21:13.890Z,14.80
2023-02-11T19:26:16.228Z,11.52
2023-02-11T19:31:20.261Z,15.52
2023-02-11T19:36:22.831Z,9.57
2023-02-11T19:41:25.226Z,13.57
2023-02-11T19:46:32.715Z,14.80
2023-02-11T19:51:35.303Z,15.18
2023-02-11T19:56:39.165Z,17.67
2023-02-11T20:01:44.631Z,10.60
2023-02-11T20:06:53.951Z,10.45
2023-02-11T20:11:57.363Z,13.33
2023-02-11T20:17:00.882Z,10.30
2023-02-11T20:22:03.926Z,9.82
2023-02-11T20:27:06.293Z,11.48
2023-02-11T20:32:11.000Z,12.68
2023-02-11T20:37:13.983Z,12.17
2023-02-11T20:42:16.601Z,14.18
2023-02-11T20:47:43.650Z,17.73
2023-02-11T20:52:46.557Z,8.88
2023-02-11T20:57:49.344Z,12.88
2023-02-11T21:02:54.219Z,14.67
2023-02-11T21:07:56.893Z,9.63
2023-02-11T21:12:59.076Z,9.95
2023-02-11T21:18:03.328Z,11.52
2023-02-11T21:23:05.900Z,11.93
2023-02-11T21:28:08.760Z,9.77
2023-02-11T21:33:12.600Z,9.75
2023-02-11T21:38:42.945Z,16.75
2023-02-11T21:43:48.437Z,18.30
2023-02-11T21:48:52.990Z,16.83
2023-02-11T21:53:57.789Z,17.17
2023-02-11T21:59:00.754Z,8.15
2023-02-11T22:04:04.931Z,11.95
2023-02-11T22:09:09.567Z,16.60
2023-02-11T22:14:11.899Z,11.88
2023-02-11T22:19:15.595Z,15.00
2023-02-11T22:24:18.266Z,14.40
2023-02-11T22:29:20.702Z,17.40
2023-02-11T22:34:24.644Z,18.23
2023-02-11T22:39:27.464Z,18.90
2023-02-11T22:44:29.744Z,17.40
2023-02-11T22:49:33.420Z,17.60
2023-02-11T22:54:35.584Z,13.07
2023-02-11T22:59:38.069Z,11.05
2023-02-11T23:04:41.714Z,13.02
2023-02-11T23:09:44.005Z,14.30
2023-02-11T23:14:46.656Z,12.13
2023-02-11T23:19:50.721Z,15.85
2023-02-11T23:24:52.993Z,11.00
2023-02-11T23:29:56.073Z,15.25
2023-02-11T23:34:59.779Z,15.40
2023-02-11T23:40:02.024Z,18.38
2023-02-11T23:45:04.752Z,12.30
2023-02-11T23:50:10.038Z,12.27
2023-02-11T23:55:12.231Z,15.40
